createdAt,value
2022-10-05T00:01:15.625Z,98192.63
2022-10-05T00:03:44.047Z,98184.31
2022-10-05T00:06:14.007Z,98179.25
2022-10-05T00:08:42.281Z,98186.03
2022-10-05T00:11:14.608Z,98173.44
2022-10-05T00:13:43.579Z,98180.19
2022-10-05T00:16:17.276Z,98168.50
2022-10-05T00:18:49.629Z,98180.78
2022-10-05T00:21:21.307Z,98183.59
2022-10-05T00:23:50.351Z,98177.69
2022-10-05T00:26:21.922Z,98179.53
2022-10-05T00:28:50.839Z,98171.13
2022-10-05T00:31:23.168Z,98167.25
2022-10-05T00:33:51.991Z,98172.03
2022-10-05T00:36:21.901Z,98170.41
2022-10-05T00:38:51.057Z,98167.53
2022-10-05T00:41:24.740Z,98171.19
2022-10-05T00:44:08.621Z,98169.53
2022-10-05T00:46:50.545Z,98164.75
2022-10-05T00:49:29.902Z,98168.06
2022-10-05T00:52:09.164Z,98183.34
2022-10-05T00:54:45.541Z,98182.69
2022-10-05T00:57:28.409Z,98181.41
2022-10-05T01:00:06.512Z,98188.50
2022-10-05T01:02:51.582Z,98186.78
2022-10-05T01:05:39.761Z,98181.63
2022-10-05T01:08:23.293Z,98186.84
2022-10-05T01:11:02.301Z,98175.50
2022-10-05T01:13:37.729Z,98173.88
2022-10-05T01:16:11.765Z,98174.00
2022-10-05T01:18:51.340Z,98173.56
2022-10-05T01:21:23.037Z,98166.78
2022-10-05T01:24:30.312Z,98166.22
2022-10-05T01:27:12.543Z,98173.03
2022-10-05T01:29:51.449Z,98163.72
2022-10-05T01:32:26.157Z,98172.38
2022-10-05T01:35:01.182Z,98174.09
2022-10-05T01:37:37.828Z,98172.53
2022-10-05T01:40:12.683Z,98165.88
2022-10-05T01:42:54.972Z,98162.66
2022-10-05T01:45:31.450Z,98167.00
2022-10-05T01:48:09.493Z,98166.44
2022-10-05T01:50:48.408Z,98166.66
2022-10-05T01:53:25.777Z,98159.03
2022-10-05T01:56:03.465Z,98165.09
2022-10-05T01:58:42.533Z,98166.88
2022-10-05T02:01:22.927Z,98154.34
2022-10-05T02:03:58.012Z,98169.91
2022-10-05T02:06:31.580Z,98162.22
2022-10-05T02:09:05.548Z,98157.22
2022-10-05T02:11:35.148Z,98162.69
2022-10-05T02:14:08.288Z,98152.50
2022-10-05T02:16:41.311Z,98154.34
2022-10-05T02:19:16.019Z,98159.41
2022-10-05T02:21:49.317Z,98151.06
2022-10-05T02:24:24.456Z,98145.19
2022-10-05T02:26:56.077Z,98133.19
2022-10-05T02:29:28.783Z,98135.69
2022-10-05T02:32:04.423Z,98134.88
2022-10-05T02:34:38.663Z,98141.41
2022-10-05T02:37:26.132Z,98138.63
2022-10-05T02:40:26.478Z,98140.00
2022-10-05T02:43:05.452Z,98141.28
2022-10-05T02:45:43.429Z,98145.63
2022-10-05T02:48:20.627Z,98151.56
2022-10-05T02:50:58.088Z,98145.63
2022-10-05T02:53:34.586Z,98133.59
2022-10-05T02:56:11.689Z,98133.44
2022-10-05T02:58:48.611Z,98132.59
2022-10-05T03:01:24.962Z,98130.25
2022-10-05T03:04:06.073Z,98125.91
2022-10-05T03:06:44.468Z,98118.81
2022-10-05T03:09:16.214Z,98126.38
2022-10-05T03:11:52.276Z,98123.69
2022-10-05T03:14:27.142Z,98115.81
2022-10-05T03:17:07.379Z,98121.97
2022-10-05T03:19:51.829Z,98126.25
2022-10-05T03:22:32.213Z,98126.25
2022-10-05T03:25:21.035Z,98131.50
2022-10-05T03:28:00.809Z,98134.13
2022-10-05T03:30:35.103Z,98133.44
2022-10-05T03:33:12.304Z,98136.38
2022-10-05T03:35:51.467Z,98135.97
2022-10-05T03:38:27.515Z,98139.22
2022-10-05T03:41:00.333Z,98138.78
2022-10-05T03:44:02.723Z,98136.94
2022-10-05T03:46:45.643Z,98138.47
2022-10-05T03:49:22.972Z,98141.59
2022-10-05T03:52:01.401Z,98127.53
2022-10-05T03:54:33.852Z,98125.47
2022-10-05T03:57:08.694Z,98125.03
2022-10-05T03:59:42.982Z,98123.44
2022-10-05T04:02:19.593Z,98122.50
2022-10-05T04:04:53.782Z,98123.53
2022-10-05T04:07:33.177Z,98115.06
2022-10-05T04:10:04.340Z,98119.66
2022-10-05T04:12:37.905Z,98115.59
2022-10-05T04:15:18.996Z,98111.41
2022-10-05T04:17:52.762Z,98111.72
2022-10-05T04:20:25.828Z,98111.84
2022-10-05T04:23:03.525Z,98113.72
2022-10-05T04:25:38.015Z,98111.41
2022-10-05T04:28:13.362Z,98105.44
2022-10-05T04:30:46.168Z,98108.16
2022-10-05T04:33:16.116Z,98109.19
2022-10-05T04:36:07.126Z,98090.88
2022-10-05T04:38:52.659Z,98098.56
2022-10-05T04:41:35.482Z,98093.47
2022-10-05T04:44:19.158Z,98099.41
2022-10-05T04:47:03.325Z,98099.66
2022-10-05T04:49:54.658Z,98104.03
2022-10-05T04:52:30.419Z,98099.91
2022-10-05T04:55:10.003Z,98106.56
2022-10-05T04:57:46.620Z,98103.44
2022-10-05T05:00:23.815Z,98104.50
2022-10-05T05:03:13.182Z,98102.16
2022-10-05T05:06:15.272Z,98096.41
2022-10-05T05:08:58.048Z,98111.66
2022-10-05T05:11:34.655Z,98104.16
2022-10-05T05:14:22.516Z,98113.81
2022-10-05T05:16:58.881Z,98117.50
2022-10-05T05:19:42.640Z,98126.84
2022-10-05T05:22:21.182Z,98124.47
2022-10-05T05:25:06.964Z,98130.47
2022-10-05T05:27:43.307Z,98128.03
2022-10-05T05:30:22.300Z,98127.25
2022-10-05T05:33:07.147Z,98131.66
2022-10-05T05:36:22.890Z,98137.59
2022-10-05T05:39:04.673Z,98152.13
2022-10-05T05:41:38.771Z,98154.03
2022-10-05T05:44:21.304Z,98155.00
2022-10-05T05:47:10.070Z,98161.78
2022-10-05T05:49:50.871Z,98161.03
2022-10-05T05:52:24.962Z,98167.00
2022-10-05T05:54:59.048Z,98175.41
2022-10-05T05:57:33.329Z,98174.56
2022-10-05T06:00:08.371Z,98173.53
2022-10-05T06:02:55.346Z,98176.84
2022-10-05T06:05:37.788Z,98188.16
2022-10-05T06:08:14.505Z,98189.63
2022-10-05T06:10:49.737Z,98185.28
2022-10-05T06:13:23.277Z,98191.13
2022-10-05T06:15:56.713Z,98183.47
2022-10-05T06:18:26.558Z,98186.66
2022-10-05T06:21:02.120Z,98193.31
2022-10-05T06:23:42.181Z,98189.81
2022-10-05T06:26:18.298Z,98184.53
2022-10-05T06:28:53.001Z,98195.50
2022-10-05T06:31:37.547Z,98186.78
2022-10-05T06:34:19.915Z,98195.97
2022-10-05T06:36:52.021Z,98192.34
2022-10-05T06:39:51.015Z,98193.78
2022-10-05T06:42:42.662Z,98199.50
2022-10-05T06:45:42.136Z,98203.28
2022-10-05T06:48:47.369Z,98206.28
2022-10-05T06:51:44.571Z,98207.56
2022-10-05T06:54:30.914Z,98211.44
2022-10-05T06:57:05.922Z,98212.75
2022-10-05T06:59:44.166Z,98213.16
2022-10-05T07:02:22.090Z,98216.94
2022-10-05T07:05:07.036Z,98217.19
2022-10-05T07:07:44.778Z,98215.66
2022-10-05T07:10:23.896Z,98217.50
2022-10-05T07:13:06.500Z,98207.28
2022-10-05T07:15:43.486Z,98212.47
2022-10-05T07:18:34.774Z,98210.69
2022-10-05T07:21:16.588Z,98209.56
2022-10-05T07:23:54.900Z,98217.09
2022-10-05T07:26:28.711Z,98214.03
2022-10-05T07:29:17.926Z,98208.81
2022-10-05T07:31:53.974Z,98212.13
2022-10-05T07:34:27.475Z,98210.09
2022-10-05T07:37:20.466Z,98211.25
2022-10-05T07:40:01.164Z,98204.25
2022-10-05T07:42:51.736Z,98206.66
2022-10-05T07:45:29.398Z,98205.59
2022-10-05T07:48:02.762Z,98210.03
2022-10-05T07:50:39.583Z,98223.44
2022-10-05T07:53:16.346Z,98219.22
2022-10-05T07:55:50.464Z,98217.13
2022-10-05T07:58:25.306Z,98219.13
2022-10-05T08:01:03.630Z,98213.06
2022-10-05T08:03:45.899Z,98219.91
2022-10-05T08:06:19.659Z,98217.53
2022-10-05T08:08:57.150Z,98221.78
2022-10-05T08:11:32.011Z,98222.25
2022-10-05T08:14:06.184Z,98226.88
2022-10-05T08:16:39.380Z,98225.84
2022-10-05T08:19:19.530Z,98226.31
2022-10-05T08:21:53.521Z,98226.44
2022-10-05T08:24:36.132Z,98221.41
2022-10-05T08:27:11.423Z,98213.78
2022-10-05T08:29:47.212Z,98209.81
2022-10-05T08:32:23.563Z,98220.31
2022-10-05T08:34:56.674Z,98222.22
2022-10-05T08:37:28.346Z,98227.81
2022-10-05T08:40:15.744Z,98215.66
2022-10-05T08:43:11.079Z,98222.25
2022-10-05T08:46:08.984Z,98217.66
2022-10-05T08:49:17.998Z,98217.63
2022-10-05T08:52:24.927Z,98211.75
2022-10-05T08:55:28.413Z,98221.28
2022-10-05T08:58:17.380Z,98217.19
2022-10-05T09:00:56.561Z,98219.84
2022-10-05T09:03:44.303Z,98214.56
2022-10-05T09:06:54.148Z,98211.13
2022-10-05T09:09:39.074Z,98214.09
2022-10-05T09:12:30.295Z,98201.91
2022-10-05T09:15:25.761Z,98202.63
2022-10-05T09:18:26.657Z,98200.16
2022-10-05T09:20:59.806Z,98199.75
2022-10-05T09:23:40.043Z,98183.81
2022-10-05T09:26:10.259Z,98192.66
2022-10-05T09:28:56.069Z,98189.06
2022-10-05T09:31:42.159Z,98188.09
2022-10-05T09:34:40.234Z,98186.69
2022-10-05T09:37:30.237Z,98189.00
2022-10-05T09:40:35.848Z,98187.88
2022-10-05T09:43:29.468Z,98189.38
2022-10-05T09:46:30.726Z,98188.78
2022-10-05T09:49:33.208Z,98189.97
2022-10-05T09:52:16.417Z,98177.53
2022-10-05T09:55:27.717Z,98180.13
2022-10-05T09:58:34.636Z,98182.41
2022-10-05T10:01:36.415Z,98172.91
2022-10-05T10:04:29.664Z,98163.78
2022-10-05T10:07:21.532Z,98160.84
2022-10-05T10:10:21.495Z,98154.59
2022-10-05T10:13:13.729Z,98151.97
2022-10-05T10:16:12.028Z,98142.06
2022-10-05T10:18:54.792Z,98148.47
2022-10-05T10:21:42.137Z,98156.94
2022-10-05T10:24:24.921Z,98142.50
2022-10-05T10:27:05.514Z,98151.66
2022-10-05T10:29:46.196Z,98141.13
2022-10-05T10:32:37.619Z,98148.84
2022-10-05T10:35:19.892Z,98147.97
2022-10-05T10:38:24.483Z,98142.88
2022-10-05T10:41:21.300Z,98139.69
2022-10-05T10:44:29.141Z,98149.28
2022-10-05T10:47:23.187Z,98149.78
2022-10-05T10:50:23.925Z,98146.03
2022-10-05T10:53:05.630Z,98145.84
2022-10-05T10:55:45.920Z,98135.66
2022-10-05T10:58:50.757Z,98130.88
2022-10-05T11:01:32.549Z,98132.00
2022-10-05T11:04:29.218Z,98126.84
2022-10-05T11:07:19.570Z,98118.13
2022-10-05T11:10:25.935Z,98109.22
2022-10-05T11:13:24.622Z,98106.75
2022-10-05T11:16:21.566Z,98106.81
2022-10-05T11:19:12.565Z,98103.03
2022-10-05T11:21:56.784Z,98097.69
2022-10-05T11:24:58.048Z,98091.88
2022-10-05T11:27:50.480Z,98093.66
2022-10-05T11:30:48.861Z,98086.16
2022-10-05T11:34:01.117Z,98086.78
2022-10-05T11:37:04.035Z,98078.81
2022-10-05T11:39:45.096Z,98066.50
2022-10-05T11:42:52.596Z,98076.47
2022-10-05T11:45:27.261Z,98065.22
2022-10-05T11:48:23.719Z,98058.81
2022-10-05T11:51:11.936Z,98061.75
2022-10-05T11:53:43.927Z,98053.22
2022-10-05T11:56:24.921Z,98050.50
2022-10-05T11:58:58.972Z,98048.19
2022-10-05T12:01:34.550Z,98046.88
2022-10-05T12:04:15.313Z,98056.22
2022-10-05T12:07:03.394Z,98038.53
2022-10-05T12:10:06.563Z,98040.13
2022-10-05T12:12:44.189Z,98043.78
2022-10-05T12:15:20.446Z,98032.81
2022-10-05T12:17:57.463Z,98036.84
2022-10-05T12:20:34.514Z,98035.56
2022-10-05T12:23:11.846Z,98030.75
2022-10-05T12:25:45.747Z,98035.00
2022-10-05T12:28:17.956Z,98029.84
2022-10-05T12:31:08.706Z,98015.09
2022-10-05T12:33:47.107Z,98024.91
2022-10-05T12:36:18.767Z,98011.56
2022-10-05T12:38:54.997Z,98016.00
2022-10-05T12:41:29.020Z,98011.72
2022-10-05T12:44:12.198Z,98004.84
2022-10-05T12:46:47.790Z,97998.13
2022-10-05T12:49:43.121Z,98008.16
2022-10-05T12:52:23.189Z,98012.50
2022-10-05T12:54:59.763Z,98013.22
2022-10-05T12:57:35.224Z,98007.19
2022-10-05T13:00:09.377Z,98011.69
2022-10-05T13:02:42.176Z,98009.03
2022-10-05T13:05:27.195Z,98007.44
2022-10-05T13:08:12.797Z,98007.53
2022-10-05T13:10:49.190Z,98008.63
2022-10-05T13:13:35.308Z,98013.38
2022-10-05T13:16:15.719Z,98010.06
2022-10-05T13:18:55.994Z,98004.84
2022-10-05T13:21:33.840Z,98008.69
2022-10-05T13:24:08.301Z,98006.81
2022-10-05T13:26:40.429Z,98006.31
2022-10-05T13:29:17.638Z,97992.09
2022-10-05T13:31:49.199Z,98003.34
2022-10-05T13:34:27.424Z,97996.06
2022-10-05T13:37:08.742Z,98001.41
2022-10-05T13:39:45.722Z,98000.59
2022-10-05T13:42:18.823Z,97998.75
2022-10-05T13:44:51.490Z,97993.34
2022-10-05T13:47:31.125Z,97989.94
2022-10-05T13:50:04.536Z,97993.38
2022-10-05T13:52:45.881Z,98002.50
2022-10-05T13:55:22.124Z,97995.91
2022-10-05T13:57:58.700Z,97997.66
2022-10-05T14:00:28.138Z,97992.13
2022-10-05T14:02:58.398Z,97984.34
2022-10-05T14:05:28.186Z,97981.84
2022-10-05T14:08:11.089Z,97991.88
2022-10-05T14:10:41.963Z,97983.41
2022-10-05T14:13:21.123Z,97974.34
2022-10-05T14:16:05.481Z,97989.16
2022-10-05T14:18:37.524Z,97982.00
2022-10-05T14:21:22.124Z,97975.53
2022-10-05T14:23:52.367Z,97977.84
2022-10-05T14:26:33.378Z,97975.13
2022-10-05T14:29:15.821Z,97982.38
2022-10-05T14:31:52.261Z,97980.19
2022-10-05T14:34:33.068Z,97981.84
2022-10-05T14:37:09.957Z,97976.88
2022-10-05T14:39:42.509Z,97970.16
2022-10-05T14:42:17.515Z,97972.28
2022-10-05T14:44:46.506Z,97962.09
2022-10-05T14:47:22.539Z,97970.50
2022-10-05T14:50:11.454Z,97964.97
2022-10-05T14:52:41.097Z,97946.66
2022-10-05T14:55:23.998Z,97950.00
2022-10-05T14:58:04.799Z,97949.91
2022-10-05T15:00:39.254Z,97954.50
2022-10-05T15:03:29.230Z,97954.78
2022-10-05T15:06:01.517Z,97948.28
2022-10-05T15:08:48.019Z,97948.44
2022-10-05T15:11:29.708Z,97953.69
2022-10-05T15:14:00.867Z,97946.44
2022-10-05T15:16:34.013Z,97950.41
2022-10-05T15:19:11.194Z,97943.25
2022-10-05T15:21:55.206Z,97954.75
2022-10-05T15:24:27.878Z,97947.19
2022-10-05T15:26:59.294Z,97953.69
2022-10-05T15:29:54.862Z,97947.78
2022-10-05T15:32:37.965Z,97957.06
2022-10-05T15:35:36.745Z,97957.63
2022-10-05T15:38:15.905Z,97960.56
2022-10-05T15:40:50.580Z,97957.06
2022-10-05T15:43:23.789Z,97958.06
2022-10-05T15:46:01.583Z,97969.63
2022-10-05T15:48:43.745Z,97968.63
2022-10-05T15:51:18.592Z,97968.13
2022-10-05T15:54:16.700Z,97968.47
2022-10-05T15:56:52.071Z,97969.25
2022-10-05T15:59:31.001Z,97980.00
2022-10-05T16:02:02.113Z,97979.00
2022-10-05T16:04:42.607Z,97979.00
2022-10-05T16:07:34.406Z,97981.78
2022-10-05T16:10:12.650Z,97985.91
2022-10-05T16:12:51.292Z,97990.50
2022-10-05T16:15:33.298Z,97990.16
2022-10-05T16:18:15.170Z,97993.72
2022-10-05T16:20:51.080Z,97995.78
2022-10-05T16:23:29.798Z,97994.88
2022-10-05T16:26:13.072Z,97992.75
2022-10-05T16:28:50.850Z,98003.44
2022-10-05T16:31:27.720Z,98003.84
2022-10-05T16:34:04.013Z,98006.09
2022-10-05T16:36:44.536Z,98010.88
2022-10-05T16:39:21.064Z,98012.03
2022-10-05T16:41:58.757Z,98021.13
2022-10-05T16:44:39.525Z,98025.63
2022-10-05T16:47:32.833Z,98033.03
2022-10-05T16:50:09.569Z,98031.53
2022-10-05T16:52:41.141Z,98036.84
2022-10-05T16:55:14.470Z,98045.44
2022-10-05T16:57:48.306Z,98037.31
2022-10-05T17:00:21.586Z,98044.03
2022-10-05T17:03:07.533Z,98046.44
2022-10-05T17:05:59.412Z,98050.25
2022-10-05T17:08:45.406Z,98048.13
2022-10-05T17:11:25.835Z,98051.63
2022-10-05T17:14:17.765Z,98056.84
2022-10-05T17:16:58.269Z,98055.97
2022-10-05T17:19:49.558Z,98065.03
2022-10-05T17:22:26.192Z,98072.63
2022-10-05T17:25:01.879Z,98073.50
2022-10-05T17:27:35.337Z,98075.78
2022-10-05T17:30:39.671Z,98074.50
2022-10-05T17:33:27.315Z,98084.06
2022-10-05T17:36:19.791Z,98083.56
2022-10-05T17:38:51.315Z,98087.69
2022-10-05T17:41:22.483Z,98093.91
2022-10-05T17:44:20.071Z,98104.91
2022-10-05T17:46:50.763Z,98106.72
2022-10-05T17:50:08.761Z,98113.88
2022-10-05T17:53:01.263Z,98113.88
2022-10-05T17:56:01.693Z,98113.13
2022-10-05T17:59:01.270Z,98115.50
2022-10-05T18:01:33.748Z,98109.19
2022-10-05T18:04:33.576Z,98105.28
2022-10-05T18:07:06.263Z,98118.56
2022-10-05T18:09:52.409Z,98112.31
2022-10-05T18:12:40.651Z,98118.88
2022-10-05T18:15:41.494Z,98126.00
2022-10-05T18:18:57.073Z,98122.84
2022-10-05T18:21:35.540Z,98117.56
2022-10-05T18:24:38.659Z,98115.16
2022-10-05T18:27:34.249Z,98116.81
2022-10-05T18:30:18.678Z,98118.25
2022-10-05T18:33:04.097Z,98116.00
2022-10-05T18:35:47.615Z,98123.97
2022-10-05T18:38:31.686Z,98128.34
2022-10-05T18:41:08.945Z,98128.34
2022-10-05T18:43:44.640Z,98134.97
2022-10-05T18:46:24.286Z,98131.22
2022-10-05T18:49:05.338Z,98133.28
2022-10-05T18:51:51.537Z,98130.97
2022-10-05T18:54:44.428Z,98133.28
2022-10-05T18:57:46.954Z,98147.88
2022-10-05T19:00:19.654Z,98141.94
2022-10-05T19:02:52.182Z,98158.34
2022-10-05T19:05:47.641Z,98164.25
2022-10-05T19:08:28.006Z,98165.84
2022-10-05T19:11:03.471Z,98166.97
2022-10-05T19:13:42.932Z,98170.63
2022-10-05T19:16:30.610Z,98173.59
2022-10-05T19:19:11.094Z,98175.63
2022-10-05T19:21:47.651Z,98189.38
2022-10-05T19:24:33.761Z,98186.84
2022-10-05T19:27:07.644Z,98191.28
2022-10-05T19:30:00.102Z,98191.22
2022-10-05T19:32:37.734Z,98197.91
2022-10-05T19:35:19.650Z,98189.16
2022-10-05T19:37:56.533Z,98187.50
2022-10-05T19:40:31.476Z,98198.81
2022-10-05T19:43:23.289Z,98209.09
2022-10-05T19:46:06.210Z,98203.44
2022-10-05T19:48:46.037Z,98205.91
2022-10-05T19:51:17.740Z,98217.47
2022-10-05T19:53:50.010Z,98218.53
2022-10-05T19:56:20.476Z,98217.72
2022-10-05T19:58:50.166Z,98223.19
2022-10-05T20:01:30.687Z,98228.88
2022-10-05T20:03:59.302Z,98230.31
2022-10-05T20:06:29.436Z,98239.22
2022-10-05T20:08:59.990Z,98234.69
2022-10-05T20:11:29.465Z,98231.84
2022-10-05T20:14:22.329Z,98249.50
2022-10-05T20:17:34.902Z,98251.72
2022-10-05T20:20:22.689Z,98257.16
2022-10-05T20:22:51.217Z,98269.03
2022-10-05T20:25:31.512Z,98268.75
2022-10-05T20:27:59.275Z,98275.88
2022-10-05T20:30:30.807Z,98282.53
2022-10-05T20:33:01.585Z,98292.88
2022-10-05T20:35:30.593Z,98286.19
2022-10-05T20:38:00.306Z,98299.88
2022-10-05T20:40:29.909Z,98313.06
2022-10-05T20:42:58.904Z,98305.13
2022-10-05T20:45:27.734Z,98310.94
2022-10-05T20:47:56.133Z,98313.19
2022-10-05T20:50:27.499Z,98319.59
2022-10-05T20:52:57.557Z,98328.94
2022-10-05T20:55:31.217Z,98334.53
2022-10-05T20:57:59.629Z,98338.31
2022-10-05T21:00:48.401Z,98345.09
2022-10-05T21:03:19.197Z,98348.44
2022-10-05T21:05:49.038Z,98347.69
2022-10-05T21:08:17.797Z,98348.59
2022-10-05T21:10:46.181Z,98359.47
2022-10-05T21:13:14.547Z,98360.84
2022-10-05T21:15:42.946Z,98366.75
2022-10-05T21:18:11.360Z,98361.22
2022-10-05T21:20:39.780Z,98359.91
2022-10-05T21:23:09.614Z,98362.69
2022-10-05T21:25:38.042Z,98357.75
2022-10-05T21:28:06.587Z,98367.72
2022-10-05T21:30:35.046Z,98365.50
2022-10-05T21:33:03.458Z,98372.56
2022-10-05T21:35:31.877Z,98362.75
2022-10-05T21:38:00.295Z,98371.94
2022-10-05T21:40:30.056Z,98381.13
2022-10-05T21:42:58.297Z,98383.72
2022-10-05T21:45:26.803Z,98386.47
2022-10-05T21:47:55.391Z,98373.16
2022-10-05T21:50:23.949Z,98380.06
2022-10-05T21:52:53.512Z,98396.69
2022-10-05T21:55:22.334Z,98395.84
2022-10-05T21:57:52.313Z,98414.81
2022-10-05T22:00:20.895Z,98410.94
2022-10-05T22:02:49.434Z,98411.16
2022-10-05T22:05:18.411Z,98417.00
2022-10-05T22:07:46.873Z,98418.91
2022-10-05T22:10:15.564Z,98420.50
2022-10-05T22:12:46.257Z,98417.91
2022-10-05T22:15:16.368Z,98424.13
2022-10-05T22:17:46.057Z,98422.59
2022-10-05T22:20:15.482Z,98429.38
2022-10-05T22:22:43.872Z,98425.38
2022-10-05T22:25:12.269Z,98428.94
2022-10-05T22:27:41.089Z,98420.28
2022-10-05T22:30:10.555Z,98416.88
2022-10-05T22:32:40.389Z,98431.47
2022-10-05T22:35:11.727Z,98438.22
2022-10-05T22:37:40.411Z,98445.00
2022-10-05T22:40:11.153Z,98437.88
2022-10-05T22:42:40.461Z,98430.28
2022-10-05T22:45:09.905Z,98435.44
2022-10-05T22:47:38.273Z,98432.09
2022-10-05T22:50:09.530Z,98435.84
2022-10-05T22:52:38.041Z,98438.41
2022-10-05T22:55:07.464Z,98453.22
2022-10-05T22:57:39.700Z,98436.19
2022-10-05T23:00:09.989Z,98436.25
2022-10-05T23:02:39.524Z,98445.53
2022-10-05T23:05:13.145Z,98449.44
2022-10-05T23:07:43.287Z,98442.06
2022-10-05T23:10:14.611Z,98449.97
2022-10-05T23:12:43.497Z,98448.00
2022-10-05T23:15:12.584Z,98444.03
2022-10-05T23:17:40.941Z,98449.28
2022-10-05T23:20:11.089Z,98450.41
2022-10-05T23:22:40.225Z,98453.72
2022-10-05T23:25:09.498Z,98451.19
2022-10-05T23:27:38.542Z,98451.31
2022-10-05T23:30:09.179Z,98446.16
2022-10-05T23:32:41.636Z,98454.03
2022-10-05T23:35:13.389Z,98459.94
2022-10-05T23:37:43.450Z,98459.31
2022-10-05T23:40:14.346Z,98456.22
2022-10-05T23:42:42.930Z,98456.28
2022-10-05T23:45:12.830Z,98460.69
2022-10-05T23:47:41.595Z,98465.84
2022-10-05T23:50:11.427Z,98462.34
2022-10-05T23:52:39.634Z,98473.50
2022-10-05T23:55:08.656Z,98475.13
2022-10-05T23:57:38.240Z,98472.31
